createdAt,value
2018-12-10T00:00:26.391Z,33.59
2018-12-10T00:03:00.374Z,33.60
2018-12-10T00:05:29.004Z,33.48
2018-12-10T00:07:57.615Z,33.00
2018-12-10T00:10:26.253Z,33.02
2018-12-10T00:12:54.980Z,32.87
2018-12-10T00:15:23.802Z,32.75
2018-12-10T00:17:52.524Z,32.69
2018-12-10T00:20:21.262Z,33.17
2018-12-10T00:22:50.215Z,33.25
2018-12-10T00:25:18.855Z,33.02
2018-12-10T00:27:47.900Z,32.62
2018-12-10T00:30:16.992Z,32.69
2018-12-10T00:32:45.633Z,33.01
2018-12-10T00:35:14.312Z,33.15
2018-12-10T00:37:42.875Z,32.98
2018-12-10T00:40:11.618Z,32.40
2018-12-10T00:42:40.223Z,32.87
2018-12-10T00:45:08.920Z,32.87
2018-12-10T00:47:37.594Z,32.97
2018-12-10T00:50:06.976Z,32.80
2018-12-10T00:52:35.615Z,32.90
2018-12-10T00:55:04.648Z,32.21
2018-12-10T00:57:33.410Z,32.15
2018-12-10T01:00:01.999Z,32.12
2018-12-10T01:02:30.746Z,32.67
2018-12-10T01:04:59.383Z,32.21
2018-12-10T01:07:28.177Z,32.17
2018-12-10T01:09:56.781Z,32.08
2018-12-10T01:12:25.487Z,32.62
2018-12-10T01:14:54.111Z,32.16
2018-12-10T01:17:22.748Z,32.26
2018-12-10T01:19:51.405Z,31.94
2018-12-10T01:22:20.056Z,32.34
2018-12-10T01:24:48.730Z,31.87
2018-12-10T01:27:17.339Z,31.81
2018-12-10T01:29:45.933Z,31.96
2018-12-10T01:32:14.644Z,31.75
2018-12-10T01:34:43.359Z,32.42
2018-12-10T01:37:12.025Z,32.02
2018-12-10T01:39:40.669Z,32.34
2018-12-10T01:42:09.239Z,31.96
2018-12-10T01:44:37.896Z,31.61
2018-12-10T01:47:06.647Z,31.71
2018-12-10T01:49:35.248Z,31.59
2018-12-10T01:52:03.915Z,31.61
2018-12-10T01:54:32.515Z,32.10
2018-12-10T01:57:01.183Z,32.02
2018-12-10T01:59:29.775Z,31.44
2018-12-10T02:01:58.772Z,31.46
2018-12-10T02:04:27.747Z,31.63
2018-12-10T02:06:56.315Z,31.52
2018-12-10T02:09:24.903Z,31.38
2018-12-10T02:11:53.549Z,31.49
2018-12-10T02:14:22.158Z,31.37
2018-12-10T02:16:50.804Z,31.82
2018-12-10T02:19:19.469Z,31.54
2018-12-10T02:21:48.080Z,31.28
2018-12-10T02:24:17.000Z,31.91
2018-12-10T02:26:45.619Z,31.85
2018-12-10T02:29:14.884Z,31.81
2018-12-10T02:31:44.089Z,31.97
2018-12-10T02:34:12.758Z,31.71
2018-12-10T02:36:41.490Z,31.61
2018-12-10T02:39:10.212Z,31.19
2018-12-10T02:41:38.804Z,31.75
2018-12-10T02:44:07.730Z,31.68
2018-12-10T02:46:36.509Z,31.33
2018-12-10T02:49:05.345Z,31.33
2018-12-10T02:51:34.022Z,31.36
2018-12-10T02:54:02.891Z,31.22
2018-12-10T02:56:31.684Z,31.36
2018-12-10T02:59:00.329Z,31.56
2018-12-10T03:01:28.944Z,30.99
2018-12-10T03:03:57.825Z,30.85
2018-12-10T03:06:26.727Z,31.01
2018-12-10T03:08:55.642Z,31.25
2018-12-10T03:11:24.366Z,31.03
2018-12-10T03:13:52.986Z,31.52
2018-12-10T03:16:21.835Z,31.41
2018-12-10T03:18:50.470Z,31.41
2018-12-10T03:21:19.421Z,30.72
2018-12-10T03:23:48.099Z,31.29
2018-12-10T03:26:16.778Z,30.90
2018-12-10T03:28:45.427Z,30.73
2018-12-10T03:31:14.144Z,31.45
2018-12-10T03:33:42.779Z,31.07
2018-12-10T03:36:11.354Z,30.71
2018-12-10T03:38:39.952Z,30.98
2018-12-10T03:41:08.684Z,31.08
2018-12-10T03:43:37.391Z,30.65
2018-12-10T03:46:06.125Z,30.68
2018-12-10T03:48:34.803Z,30.88
2018-12-10T03:51:03.411Z,30.53
2018-12-10T03:53:32.073Z,30.70
2018-12-10T03:56:00.649Z,30.66
2018-12-10T03:58:29.356Z,31.10
2018-12-10T04:00:58.058Z,30.53
2018-12-10T04:03:27.480Z,30.56
2018-12-10T04:05:57.183Z,31.11
2018-12-10T04:08:25.795Z,30.96
2018-12-10T04:10:54.709Z,30.86
2018-12-10T04:13:23.322Z,30.45
2018-12-10T04:15:52.249Z,31.02
2018-12-10T04:18:20.901Z,30.94
2018-12-10T04:20:49.789Z,30.68
2018-12-10T04:23:18.580Z,31.12
2018-12-10T04:25:47.513Z,30.45
2018-12-10T04:28:18.040Z,30.79
2018-12-10T04:30:46.649Z,30.82
2018-12-10T04:33:15.259Z,30.48
2018-12-10T04:35:43.874Z,30.30
2018-12-10T04:38:12.521Z,30.76
2018-12-10T04:40:41.380Z,30.65
2018-12-10T04:43:10.045Z,30.84
2018-12-10T04:45:38.803Z,30.27
2018-12-10T04:48:07.614Z,30.80
2018-12-10T04:50:36.309Z,30.44
2018-12-10T04:53:04.885Z,30.81
2018-12-10T04:55:33.528Z,30.40
2018-12-10T04:58:02.194Z,30.21
2018-12-10T05:00:30.981Z,30.14
2018-12-10T05:02:59.910Z,30.04
2018-12-10T05:05:28.544Z,30.11
2018-12-10T05:07:57.242Z,30.09
2018-12-10T05:10:26.199Z,30.03
2018-12-10T05:12:55.259Z,29.97
2018-12-10T05:15:24.168Z,30.19
2018-12-10T05:17:52.902Z,30.03
2018-12-10T05:20:21.531Z,30.23
2018-12-10T05:22:50.172Z,30.03
2018-12-10T05:25:18.775Z,30.24
2018-12-10T05:27:47.380Z,29.92
2018-12-10T05:30:16.107Z,30.43
2018-12-10T05:32:44.903Z,30.16
2018-12-10T05:35:13.710Z,30.46
2018-12-10T05:37:42.504Z,29.99
2018-12-10T05:40:11.296Z,29.90
2018-12-10T05:42:39.961Z,30.51
2018-12-10T05:45:09.067Z,30.12
2018-12-10T05:47:37.691Z,29.95
2018-12-10T05:50:07.359Z,29.80
2018-12-10T05:52:35.955Z,30.38
2018-12-10T05:55:04.709Z,30.07
2018-12-10T05:57:33.304Z,29.74
2018-12-10T06:00:02.034Z,29.70
2018-12-10T06:02:30.624Z,29.86
2018-12-10T06:04:59.247Z,30.16
2018-12-10T06:07:27.875Z,30.01
2018-12-10T06:09:56.542Z,29.66
2018-12-10T06:12:25.179Z,30.28
2018-12-10T06:14:53.816Z,30.12
2018-12-10T06:17:22.452Z,29.76
2018-12-10T06:19:51.069Z,30.17
2018-12-10T06:22:19.900Z,29.81
2018-12-10T06:24:48.556Z,29.60
2018-12-10T06:27:17.288Z,30.09
2018-12-10T06:29:45.929Z,29.69
2018-12-10T06:32:14.547Z,30.01
2018-12-10T06:34:43.195Z,29.56
2018-12-10T06:37:13.035Z,29.58
2018-12-10T06:39:41.696Z,30.12
2018-12-10T06:42:10.425Z,29.46
2018-12-10T06:44:39.070Z,30.37
2018-12-10T06:47:07.790Z,30.42
2018-12-10T06:49:36.380Z,30.66
2018-12-10T06:52:05.083Z,30.36
2018-12-10T06:54:33.707Z,30.71
2018-12-10T06:57:02.361Z,30.62
2018-12-10T06:59:30.996Z,31.09
2018-12-10T07:01:59.623Z,31.17
2018-12-10T07:04:28.210Z,30.80
2018-12-10T07:06:56.879Z,30.72
2018-12-10T07:09:25.509Z,31.32
2018-12-10T07:11:54.116Z,31.25
2018-12-10T07:14:22.707Z,31.23
2018-12-10T07:16:51.457Z,30.79
2018-12-10T07:19:20.145Z,31.31
2018-12-10T07:21:48.808Z,30.83
2018-12-10T07:24:17.464Z,31.42
2018-12-10T07:26:46.076Z,31.75
2018-12-10T07:29:14.818Z,31.84
2018-12-10T07:31:43.680Z,31.88
2018-12-10T07:34:12.396Z,32.06
2018-12-10T07:36:40.992Z,32.42
2018-12-10T07:39:09.683Z,31.68
2018-12-10T07:41:38.327Z,31.72
2018-12-10T07:44:06.977Z,31.94
2018-12-10T07:46:35.652Z,32.45
2018-12-10T07:49:04.463Z,32.71
2018-12-10T07:51:33.124Z,32.82
2018-12-10T07:54:01.757Z,32.94
2018-12-10T07:56:31.065Z,32.77
2018-12-10T07:58:59.711Z,32.86
2018-12-10T08:01:28.344Z,33.25
2018-12-10T08:03:56.989Z,33.05
2018-12-10T08:06:25.639Z,33.19
2018-12-10T08:08:54.250Z,33.52
2018-12-10T08:11:22.934Z,34.13
2018-12-10T08:13:51.627Z,33.91
2018-12-10T08:16:20.239Z,34.63
2018-12-10T08:18:48.852Z,34.68
2018-12-10T08:21:17.447Z,34.61
2018-12-10T08:23:46.097Z,35.18
2018-12-10T08:26:14.676Z,35.43
2018-12-10T08:28:43.354Z,35.05
2018-12-10T08:31:12.156Z,35.24
2018-12-10T08:33:40.853Z,35.41
2018-12-10T08:36:09.590Z,35.73
2018-12-10T08:38:38.169Z,35.76
2018-12-10T08:41:06.769Z,35.40
2018-12-10T08:43:35.408Z,35.41
2018-12-10T08:46:04.026Z,35.41
2018-12-10T08:48:32.638Z,35.47
2018-12-10T08:51:01.345Z,35.92
2018-12-10T08:53:30.067Z,35.43
2018-12-10T08:55:58.664Z,35.86
2018-12-10T08:58:27.289Z,35.87
2018-12-10T09:00:55.893Z,35.29
2018-12-10T09:03:24.482Z,35.22
2018-12-10T09:05:53.138Z,35.78
2018-12-10T09:08:21.735Z,35.60
2018-12-10T09:10:50.391Z,35.69
2018-12-10T09:13:18.987Z,35.02
2018-12-10T09:15:47.646Z,35.13
2018-12-10T09:18:16.418Z,35.56
2018-12-10T09:20:45.015Z,35.06
2018-12-10T09:23:13.937Z,35.41
2018-12-10T09:25:42.564Z,34.77
2018-12-10T09:28:19.310Z,35.37
2018-12-10T09:30:41.800Z,34.96
2018-12-10T09:33:10.630Z,35.18
2018-12-10T09:35:39.504Z,35.07
2018-12-10T09:38:08.381Z,34.89
2018-12-10T09:40:37.460Z,34.80
2018-12-10T09:43:06.352Z,34.47
2018-12-10T09:45:35.199Z,34.98
2018-12-10T09:48:03.929Z,34.79
2018-12-10T09:50:32.775Z,34.62
2018-12-10T09:53:01.493Z,34.32
2018-12-10T09:55:30.103Z,34.72
2018-12-10T09:57:58.828Z,34.13
2018-12-10T10:00:27.453Z,34.14
2018-12-10T10:02:56.093Z,34.17
2018-12-10T10:05:24.718Z,34.07
2018-12-10T10:07:53.367Z,33.92
2018-12-10T10:10:21.971Z,33.82
2018-12-10T10:12:50.585Z,34.40
2018-12-10T10:15:19.255Z,34.35
2018-12-10T10:17:47.843Z,34.33
2018-12-10T10:20:16.469Z,34.30
2018-12-10T10:22:45.255Z,34.29
2018-12-10T10:25:13.895Z,33.66
2018-12-10T10:27:42.487Z,33.61
2018-12-10T10:30:11.397Z,34.06
2018-12-10T10:32:40.054Z,33.86
2018-12-10T10:35:08.731Z,33.42
2018-12-10T10:37:37.468Z,33.62
2018-12-10T10:40:06.842Z,33.09
2018-12-10T10:42:35.515Z,33.52
2018-12-10T10:45:04.808Z,32.94
2018-12-10T10:47:33.504Z,32.92
2018-12-10T10:50:02.184Z,33.14
2018-12-10T10:52:33.360Z,32.76
2018-12-10T10:55:01.517Z,33.34
2018-12-10T10:57:31.492Z,33.25
2018-12-10T11:00:00.279Z,32.73
2018-12-10T11:02:34.290Z,33.07
2018-12-10T11:05:02.919Z,33.05
2018-12-10T11:07:31.647Z,32.46
2018-12-10T11:10:00.312Z,32.53
2018-12-10T11:12:29.231Z,32.86
2018-12-10T11:14:57.966Z,32.80
2018-12-10T11:17:26.752Z,32.33
2018-12-10T11:19:55.429Z,32.16
2018-12-10T11:22:24.204Z,32.60
2018-12-10T11:24:53.031Z,32.38
2018-12-10T11:27:21.760Z,32.55
2018-12-10T11:29:50.409Z,32.11
2018-12-10T11:32:19.235Z,31.91
2018-12-10T11:34:47.933Z,32.48
2018-12-10T11:37:16.866Z,32.30
2018-12-10T11:39:45.545Z,31.96
2018-12-10T11:42:14.165Z,32.38
2018-12-10T11:44:42.809Z,31.64
2018-12-10T11:47:13.225Z,31.51
2018-12-10T11:49:42.460Z,31.65
2018-12-10T11:52:11.091Z,31.98
2018-12-10T11:54:39.773Z,31.91
2018-12-10T11:57:08.569Z,31.95
2018-12-10T11:59:37.284Z,31.95
2018-12-10T12:02:06.200Z,31.69
2018-12-10T12:04:34.909Z,32.00
2018-12-10T12:07:03.559Z,31.61
2018-12-10T12:09:32.225Z,31.87
2018-12-10T12:12:01.163Z,31.81
2018-12-10T12:14:29.831Z,31.83
2018-12-10T12:16:58.494Z,31.14
2018-12-10T12:19:27.086Z,31.67
2018-12-10T12:21:56.506Z,31.70
2018-12-10T12:24:25.209Z,31.63
2018-12-10T12:26:54.095Z,31.59
2018-12-10T12:29:22.962Z,30.92
2018-12-10T12:31:51.663Z,31.00
2018-12-10T12:34:20.635Z,30.89
2018-12-10T12:36:49.228Z,31.38
2018-12-10T12:39:17.818Z,31.28
2018-12-10T12:41:46.440Z,30.94
2018-12-10T12:44:15.228Z,30.75
2018-12-10T12:46:43.991Z,31.29
2018-12-10T12:49:12.834Z,31.26
2018-12-10T12:51:41.599Z,31.05
2018-12-10T12:54:10.719Z,31.26
2018-12-10T12:56:39.407Z,31.34
2018-12-10T12:59:08.155Z,30.56
2018-12-10T13:01:36.759Z,30.78
2018-12-10T13:04:06.804Z,31.11
2018-12-10T13:06:35.634Z,30.77
2018-12-10T13:09:07.164Z,31.00
2018-12-10T13:11:37.127Z,30.45
2018-12-10T13:14:05.965Z,30.92
2018-12-10T13:16:34.631Z,30.88
2018-12-10T13:19:03.324Z,30.38
2018-12-10T13:21:32.022Z,30.37
2018-12-10T13:24:00.739Z,30.43
2018-12-10T13:26:29.444Z,30.57
2018-12-10T13:28:58.178Z,30.96
2018-12-10T13:31:27.251Z,30.25
2018-12-10T13:33:56.118Z,30.32
2018-12-10T13:36:24.771Z,30.79
2018-12-10T13:38:53.681Z,30.21
2018-12-10T13:41:22.309Z,30.21
2018-12-10T13:43:51.095Z,30.15
2018-12-10T13:46:19.761Z,30.10
2018-12-10T13:48:48.640Z,30.16
2018-12-10T13:51:17.660Z,30.38
2018-12-10T13:53:46.388Z,30.11
2018-12-10T13:56:15.220Z,30.68
2018-12-10T13:58:43.973Z,30.44
2018-12-10T14:01:13.964Z,29.95
2018-12-10T14:03:42.750Z,30.19
2018-12-10T14:06:12.177Z,30.56
2018-12-10T14:08:40.923Z,30.38
2018-12-10T14:11:09.883Z,29.88
2018-12-10T14:13:38.949Z,30.44
2018-12-10T14:16:07.623Z,30.38
2018-12-10T14:18:36.304Z,29.97
2018-12-10T14:21:06.644Z,30.07
2018-12-10T14:23:35.865Z,29.95
2018-12-10T14:26:05.206Z,29.83
2018-12-10T14:28:34.400Z,30.19
2018-12-10T14:31:03.914Z,30.28
2018-12-10T14:33:32.683Z,29.89
2018-12-10T14:36:01.587Z,30.22
2018-12-10T14:38:30.597Z,29.75
2018-12-10T14:40:59.278Z,30.10
2018-12-10T14:43:28.044Z,30.09
2018-12-10T14:45:57.095Z,30.05
2018-12-10T14:48:25.856Z,29.42
2018-12-10T14:50:54.878Z,29.52
2018-12-10T14:53:23.540Z,30.02
2018-12-10T14:55:52.613Z,30.00
2018-12-10T14:58:21.522Z,29.36
2018-12-10T15:00:50.187Z,30.01
2018-12-10T15:03:18.973Z,29.30
2018-12-10T15:05:47.669Z,29.33
2018-12-10T15:08:16.490Z,29.91
2018-12-10T15:10:45.159Z,29.50
2018-12-10T15:13:14.024Z,29.29
2018-12-10T15:15:42.684Z,29.81
2018-12-10T15:18:11.439Z,29.17
2018-12-10T15:20:40.346Z,29.50
2018-12-10T15:23:09.470Z,29.69
2018-12-10T15:25:38.577Z,29.14
2018-12-10T15:28:07.588Z,29.08
2018-12-10T15:30:36.556Z,29.33
2018-12-10T15:33:06.346Z,29.61
2018-12-10T15:35:35.386Z,29.15
2018-12-10T15:38:04.420Z,29.17
2018-12-10T15:40:33.281Z,28.96
2018-12-10T15:43:02.441Z,29.58
2018-12-10T15:45:31.114Z,28.97
2018-12-10T15:47:59.916Z,29.29
2018-12-10T15:50:28.627Z,29.40
2018-12-10T15:52:57.275Z,29.42
2018-12-10T15:55:26.236Z,29.56
2018-12-10T15:57:55.059Z,29.41
2018-12-10T16:00:24.015Z,28.91
2018-12-10T16:02:52.647Z,29.46
2018-12-10T16:05:22.020Z,29.46
2018-12-10T16:07:50.628Z,28.98
2018-12-10T16:10:19.307Z,29.41
2018-12-10T16:12:48.074Z,29.18
2018-12-10T16:15:16.692Z,29.29
2018-12-10T16:17:45.672Z,28.77
2018-12-10T16:20:14.497Z,28.78
2018-12-10T16:22:43.123Z,29.23
2018-12-10T16:27:39.900Z,28.83
2018-12-10T16:30:09.679Z,28.64
2018-12-10T16:32:38.377Z,29.25
2018-12-10T16:35:07.350Z,29.26
2018-12-10T16:37:36.060Z,28.66
2018-12-10T16:40:06.128Z,28.58
2018-12-10T16:42:34.737Z,29.24
2018-12-10T16:45:04.075Z,28.63
2018-12-10T16:47:32.864Z,28.51
2018-12-10T16:50:01.488Z,28.52
2018-12-10T16:52:30.393Z,28.63
2018-12-10T16:54:59.124Z,28.79
2018-12-10T16:57:27.803Z,28.97
2018-12-10T16:59:56.687Z,29.05
2018-12-10T17:02:25.383Z,28.97
2018-12-10T17:04:54.061Z,29.11
2018-12-10T17:07:22.862Z,28.41
2018-12-10T17:09:51.517Z,28.40
2018-12-10T17:12:20.562Z,29.03
2018-12-10T17:14:49.200Z,28.87
2018-12-10T17:17:17.861Z,28.91
2018-12-10T17:19:46.671Z,28.93
2018-12-10T17:22:15.646Z,28.34
2018-12-10T17:24:44.334Z,28.86
2018-12-10T17:27:13.221Z,28.52
2018-12-10T17:29:42.232Z,28.28
2018-12-10T17:32:11.669Z,28.36
2018-12-10T17:34:40.577Z,28.24
2018-12-10T17:37:09.549Z,28.23
2018-12-10T17:39:38.551Z,28.66
2018-12-10T17:42:07.450Z,28.27
2018-12-10T17:44:36.456Z,28.15
2018-12-10T17:47:08.717Z,28.18
2018-12-10T17:49:36.672Z,28.71
2018-12-10T17:52:06.183Z,28.22
2018-12-10T17:54:34.924Z,28.59
2018-12-10T17:57:03.886Z,28.65
2018-12-10T17:59:32.598Z,28.64
2018-12-10T18:02:01.490Z,28.09
2018-12-10T18:04:30.498Z,28.09
2018-12-10T18:07:00.000Z,28.21
2018-12-10T18:09:29.191Z,28.54
2018-12-10T18:11:57.851Z,28.48
2018-12-10T18:14:26.533Z,28.89
2018-12-10T18:16:55.581Z,29.64
2018-12-10T18:19:24.267Z,29.21
2018-12-10T18:21:53.074Z,31.19
2018-12-10T18:24:21.991Z,30.92
2018-12-10T18:26:50.926Z,31.12
2018-12-10T18:29:19.786Z,31.95
2018-12-10T18:31:48.651Z,32.29
2018-12-10T18:34:17.718Z,32.26
2018-12-10T18:36:46.767Z,31.11
2018-12-10T18:39:15.716Z,31.38
2018-12-10T18:41:44.745Z,31.08
2018-12-10T18:44:14.808Z,30.69
2018-12-10T18:46:43.691Z,31.16
2018-12-10T18:49:12.412Z,30.64
2018-12-10T18:51:41.073Z,30.98
2018-12-10T18:54:09.837Z,31.31
2018-12-10T18:56:38.876Z,31.24
2018-12-10T18:59:07.927Z,31.17
2018-12-10T19:01:36.898Z,30.58
2018-12-10T19:04:07.252Z,30.76
2018-12-10T19:06:35.901Z,30.26
2018-12-10T19:09:07.284Z,30.63
2018-12-10T19:11:36.741Z,29.96
2018-12-10T19:14:05.618Z,30.52
2018-12-10T19:16:34.560Z,29.85
2018-12-10T19:19:04.392Z,30.10
2018-12-10T19:21:33.098Z,30.09
2018-12-10T19:24:08.358Z,29.63
2018-12-10T19:26:37.418Z,30.12
2018-12-10T19:29:06.485Z,29.43
2018-12-10T19:31:35.555Z,29.82
2018-12-10T19:34:04.675Z,29.27
2018-12-10T19:36:33.755Z,29.19
2018-12-10T19:39:02.759Z,29.08
2018-12-10T19:41:31.689Z,29.12
2018-12-10T19:44:00.785Z,29.32
2018-12-10T19:46:29.611Z,29.45
2018-12-10T19:48:58.307Z,29.30
2018-12-10T19:51:27.464Z,29.03
2018-12-10T19:53:56.476Z,29.33
2018-12-10T19:56:26.507Z,28.64
2018-12-10T19:58:55.763Z,28.72
2018-12-10T20:01:25.006Z,28.60
2018-12-10T20:03:54.202Z,29.14
2018-12-10T20:06:28.422Z,28.48
2018-12-10T20:08:58.203Z,28.49
2018-12-10T20:11:27.237Z,29.00
2018-12-10T20:13:56.393Z,28.88
2018-12-10T20:16:25.271Z,28.90
2018-12-10T20:18:54.377Z,28.32
2018-12-10T20:21:23.256Z,28.85
2018-12-10T20:23:52.237Z,28.36
2018-12-10T20:26:21.186Z,28.23
2018-12-10T20:28:49.855Z,28.69
2018-12-10T20:31:18.793Z,28.14
2018-12-10T20:33:47.524Z,28.62
2018-12-10T20:36:16.270Z,28.64
2018-12-10T20:38:44.915Z,28.60
2018-12-10T20:41:14.544Z,28.62
2018-12-10T20:43:43.253Z,28.03
2018-12-10T20:46:12.065Z,28.37
2018-12-10T20:48:40.791Z,28.43
2018-12-10T20:51:09.739Z,28.44
2018-12-10T20:53:38.708Z,27.89
2018-12-10T20:56:07.748Z,27.90
2018-12-10T20:58:36.682Z,27.85
2018-12-10T21:01:05.626Z,28.39
2018-12-10T21:03:34.421Z,27.81
2018-12-10T21:06:08.537Z,28.30
2018-12-10T21:08:37.544Z,27.76
2018-12-10T21:11:06.368Z,27.82
2018-12-10T21:13:35.052Z,28.49
2018-12-10T21:16:03.846Z,28.70
2018-12-10T21:18:32.856Z,28.72
2018-12-10T21:21:01.686Z,28.42
2018-12-10T21:23:30.434Z,28.41
2018-12-10T21:25:59.095Z,28.51
2018-12-10T21:28:27.766Z,28.82
2018-12-10T21:30:56.535Z,29.02
2018-12-10T21:33:25.248Z,29.83
2018-12-10T21:35:53.999Z,29.44
2018-12-10T21:38:22.739Z,29.51
2018-12-10T21:40:51.508Z,29.49
2018-12-10T21:43:20.159Z,29.99
2018-12-10T21:45:48.958Z,29.59
2018-12-10T21:48:17.708Z,29.76
2018-12-10T21:50:46.372Z,29.57
2018-12-10T21:53:15.038Z,30.20
2018-12-10T21:55:43.738Z,30.20
2018-12-10T21:58:12.399Z,30.23
2018-12-10T22:00:41.095Z,29.79
2018-12-10T22:03:09.744Z,30.20
2018-12-10T22:05:38.466Z,30.29
2018-12-10T22:08:07.137Z,29.86
2018-12-10T22:10:36.136Z,30.43
2018-12-10T22:13:05.009Z,29.97
2018-12-10T22:15:33.791Z,30.32
2018-12-10T22:18:02.461Z,30.44
2018-12-10T22:20:31.810Z,30.45
2018-12-10T22:23:00.632Z,30.44
2018-12-10T22:25:29.356Z,30.13
2018-12-10T22:27:58.037Z,30.43
2018-12-10T22:30:27.087Z,30.12
2018-12-10T22:32:56.367Z,30.55
2018-12-10T22:35:25.199Z,30.56
2018-12-10T22:37:54.200Z,30.36
2018-12-10T22:40:23.181Z,30.65
2018-12-10T22:42:51.948Z,30.55
2018-12-10T22:45:20.873Z,30.12
2018-12-10T22:47:49.530Z,30.56
2018-12-10T22:50:18.420Z,30.70
2018-12-10T22:52:47.397Z,30.66
2018-12-10T22:55:16.171Z,30.62
2018-12-10T22:57:44.935Z,30.70
2018-12-10T23:00:14.373Z,30.16
2018-12-10T23:02:43.300Z,30.12
2018-12-10T23:05:13.088Z,30.60
2018-12-10T23:07:42.089Z,30.76
2018-12-10T23:10:11.671Z,30.59
2018-12-10T23:12:40.561Z,30.72
2018-12-10T23:15:09.659Z,31.37
2018-12-10T23:17:38.546Z,31.38
2018-12-10T23:20:08.315Z,31.42
2018-12-10T23:22:37.105Z,30.89
2018-12-10T23:25:06.317Z,30.76
2018-12-10T23:27:35.361Z,30.90
2018-12-10T23:30:05.230Z,30.71
2018-12-10T23:32:34.308Z,30.58
2018-12-10T23:35:03.046Z,30.77
2018-12-10T23:37:32.032Z,30.66
2018-12-10T23:40:00.947Z,31.04
2018-12-10T23:42:29.921Z,30.56
2018-12-10T23:44:58.968Z,31.00
2018-12-10T23:47:27.819Z,30.52
2018-12-10T23:49:56.763Z,30.67
2018-12-10T23:52:25.492Z,30.39
2018-12-10T23:54:54.543Z,30.50
2018-12-10T23:57:23.588Z,30.34
2018-12-10T23:59:52.431Z,30.28
